createdAt,value
2018-12-03T00:00:05.100Z,75.00
2018-12-03T00:02:35.458Z,74.73
2018-12-03T00:05:06.603Z,68.53
2018-12-03T00:07:37.052Z,65.47
2018-12-03T00:10:09.290Z,73.67
2018-12-03T00:12:39.626Z,74.57
2018-12-03T00:15:09.970Z,70.20
2018-12-03T00:17:40.329Z,75.53
2018-12-03T00:20:11.504Z,66.17
2018-12-03T00:22:41.864Z,63.53
2018-12-03T00:25:12.182Z,63.37
2018-12-03T00:27:51.642Z,74.80
2018-12-03T00:30:22.376Z,71.73
2018-12-03T00:32:52.742Z,75.87
2018-12-03T00:35:23.075Z,75.07
2018-12-03T00:37:53.428Z,73.90
2018-12-03T00:40:23.854Z,62.93
2018-12-03T00:42:54.215Z,77.80
2018-12-03T00:45:24.530Z,65.07
2018-12-03T00:47:54.783Z,66.70
2018-12-03T00:50:25.139Z,69.27
2018-12-03T00:52:55.420Z,72.70
2018-12-03T00:55:25.772Z,79.37
2018-12-03T00:57:56.146Z,70.57
2018-12-03T01:00:26.422Z,72.23
2018-12-03T01:02:56.739Z,67.50
2018-12-03T01:05:27.076Z,65.57
2018-12-03T01:07:57.458Z,61.50
2018-12-03T01:10:27.823Z,64.37
2018-12-03T01:12:58.142Z,61.33
2018-12-03T01:15:28.537Z,68.17
2018-12-03T01:17:58.788Z,71.13
2018-12-03T01:20:29.199Z,73.03
2018-12-03T01:22:59.554Z,63.17
2018-12-03T01:25:30.578Z,68.53
2018-12-03T01:28:00.883Z,68.43
2018-12-03T01:30:31.344Z,72.13
2018-12-03T01:33:01.853Z,59.87
2018-12-03T01:35:32.462Z,64.97
2018-12-03T01:38:02.947Z,66.23
2018-12-03T01:40:33.290Z,60.23
2018-12-03T01:43:03.652Z,58.93
2018-12-03T01:45:34.082Z,63.33
2018-12-03T01:48:04.406Z,59.67
2018-12-03T01:50:34.790Z,56.37
2018-12-03T01:53:05.397Z,57.97
2018-12-03T01:55:35.728Z,54.33
2018-12-03T01:58:06.144Z,55.57
2018-12-03T02:01:13.522Z,59.60
2018-12-03T02:03:42.552Z,66.30
2018-12-03T02:06:11.614Z,59.07
2018-12-03T02:08:40.679Z,55.37
2018-12-03T02:11:09.730Z,59.37
2018-12-03T02:13:38.801Z,58.53
2018-12-03T02:16:07.821Z,50.13
2018-12-03T02:18:36.842Z,57.63
2018-12-03T02:21:05.919Z,65.60
2018-12-03T02:23:34.981Z,57.77
2018-12-03T02:26:04.084Z,50.60
2018-12-03T02:28:33.126Z,52.40
2018-12-03T02:31:02.196Z,58.20
2018-12-03T02:33:31.225Z,51.17
2018-12-03T02:36:00.291Z,50.87
2018-12-03T02:38:29.307Z,52.07
2018-12-03T02:40:58.368Z,51.50
2018-12-03T02:43:27.432Z,51.60
2018-12-03T02:45:56.495Z,56.10
2018-12-03T02:48:25.528Z,51.90
2018-12-03T02:50:54.591Z,45.83
2018-12-03T02:53:23.612Z,52.70
2018-12-03T02:55:52.681Z,49.73
2018-12-03T02:58:21.704Z,47.60
2018-12-03T03:00:50.770Z,51.33
2018-12-03T03:03:19.790Z,51.10
2018-12-03T03:05:48.855Z,49.97
2018-12-03T03:08:17.923Z,45.70
2018-12-03T03:10:46.986Z,43.23
2018-12-03T03:13:16.003Z,41.33
2018-12-03T03:15:45.077Z,43.03
2018-12-03T03:18:14.094Z,54.07
2018-12-03T03:20:43.164Z,45.33
2018-12-03T03:23:12.227Z,46.57
2018-12-03T03:25:41.254Z,50.80
2018-12-03T03:28:10.308Z,41.27
2018-12-03T03:30:39.341Z,42.80
2018-12-03T03:33:08.391Z,47.67
2018-12-03T03:35:37.409Z,43.50
2018-12-03T03:38:06.566Z,48.77
2018-12-03T03:40:35.573Z,45.17
2018-12-03T03:43:04.897Z,45.67
2018-12-03T03:45:33.964Z,46.93
2018-12-03T03:48:03.023Z,43.60
2018-12-03T03:50:32.116Z,45.10
2018-12-03T03:53:01.182Z,44.30
2018-12-03T03:55:30.238Z,46.70
2018-12-03T03:57:59.315Z,44.00
2018-12-03T04:00:28.454Z,50.07
2018-12-03T04:02:57.455Z,47.53
2018-12-03T04:05:26.517Z,49.80
2018-12-03T04:07:55.544Z,48.37
2018-12-03T04:10:24.588Z,46.83
2018-12-03T04:12:53.609Z,54.63
2018-12-03T04:15:22.671Z,46.03
2018-12-03T04:17:51.764Z,42.83
2018-12-03T04:20:20.894Z,48.63
2018-12-03T04:22:49.911Z,41.63
2018-12-03T04:25:18.967Z,47.07
2018-12-03T04:27:48.092Z,55.63
2018-12-03T04:30:17.175Z,49.57
2018-12-03T04:32:46.189Z,55.07
2018-12-03T04:35:15.290Z,56.77
2018-12-03T04:37:44.416Z,67.40
2018-12-03T04:40:13.550Z,53.30
2018-12-03T04:42:42.613Z,54.10
2018-12-03T04:45:11.667Z,46.20
2018-12-03T04:47:40.733Z,89.70
2018-12-03T04:50:09.830Z,45.60
2018-12-03T04:52:38.896Z,53.60
2018-12-03T04:55:08.066Z,49.67
2018-12-03T04:57:37.114Z,51.80
2018-12-03T05:00:06.817Z,52.27
2018-12-03T05:02:35.841Z,53.13
2018-12-03T05:05:06.053Z,49.43
2018-12-03T05:07:35.111Z,48.87
2018-12-03T05:10:05.650Z,48.80
2018-12-03T05:12:34.711Z,55.30
2018-12-03T05:15:04.371Z,49.27
2018-12-03T05:17:33.429Z,44.07
2018-12-03T05:20:02.557Z,49.07
2018-12-03T05:22:31.603Z,48.90
2018-12-03T05:25:00.612Z,45.10
2018-12-03T05:27:29.660Z,53.03
2018-12-03T05:29:58.686Z,45.90
2018-12-03T05:32:27.736Z,44.70
2018-12-03T05:34:56.752Z,50.27
2018-12-03T05:37:25.809Z,59.33
2018-12-03T05:39:54.842Z,72.53
2018-12-03T05:42:23.883Z,72.60
2018-12-03T05:44:52.900Z,53.40
2018-12-03T05:47:21.918Z,50.33
2018-12-03T05:49:50.977Z,44.70
2018-12-03T05:52:19.997Z,50.37
2018-12-03T05:54:49.132Z,49.83
2018-12-03T05:57:18.160Z,53.40
2018-12-03T05:59:47.229Z,44.27
2018-12-03T06:02:16.248Z,55.60
2018-12-03T06:04:45.290Z,53.87
2018-12-03T06:07:14.328Z,50.60
2018-12-03T06:09:43.369Z,55.57
2018-12-03T06:12:12.428Z,47.83
2018-12-03T06:14:41.442Z,49.17
2018-12-03T06:17:10.483Z,48.50
2018-12-03T06:19:39.533Z,50.67
2018-12-03T06:22:08.554Z,44.93
2018-12-03T06:24:37.682Z,55.17
2018-12-03T06:27:06.700Z,53.03
2018-12-03T06:29:35.776Z,44.30
2018-12-03T06:32:05.617Z,48.40
2018-12-03T06:34:34.828Z,52.93
2018-12-03T06:37:04.503Z,53.97
2018-12-03T06:39:33.540Z,43.93
2018-12-03T06:42:02.561Z,52.07
2018-12-03T06:44:32.013Z,57.97
2018-12-03T06:47:01.021Z,56.90
2018-12-03T06:49:30.062Z,53.73
2018-12-03T06:51:59.088Z,57.57
2018-12-03T06:54:28.124Z,55.60
2018-12-03T06:56:57.142Z,53.40
2018-12-03T06:59:26.188Z,51.27
2018-12-03T07:01:55.317Z,59.67
2018-12-03T07:04:24.363Z,54.83
2018-12-03T07:06:53.393Z,48.77
2018-12-03T07:09:22.435Z,52.17
2018-12-03T07:11:51.453Z,58.43
2018-12-03T07:14:20.487Z,54.07
2018-12-03T07:16:49.538Z,55.00
2018-12-03T07:19:18.680Z,56.90
2018-12-03T07:21:47.734Z,65.60
2018-12-03T07:24:16.800Z,62.43
2018-12-03T07:26:45.948Z,52.63
2018-12-03T07:29:14.958Z,60.60
2018-12-03T07:31:44.007Z,63.73
2018-12-03T07:34:13.032Z,61.37
2018-12-03T07:36:42.072Z,53.20
2018-12-03T07:39:11.120Z,59.70
2018-12-03T07:41:40.134Z,56.10
2018-12-03T07:44:09.179Z,60.07
2018-12-03T07:46:38.186Z,61.57
2018-12-03T07:49:07.307Z,61.37
2018-12-03T07:51:36.353Z,58.67
2018-12-03T07:54:05.461Z,54.90
2018-12-03T07:56:34.504Z,66.43
2018-12-03T07:59:03.583Z,57.53
2018-12-03T08:01:32.603Z,57.10
2018-12-03T08:04:01.657Z,59.90
2018-12-03T08:06:30.669Z,60.50
2018-12-03T08:08:59.727Z,64.73
2018-12-03T08:11:28.776Z,62.10
2018-12-03T08:13:57.785Z,59.80
2018-12-03T08:16:26.854Z,62.53
2018-12-03T08:18:55.908Z,58.63
2018-12-03T08:21:24.941Z,59.20
2018-12-03T08:23:53.958Z,63.00
2018-12-03T08:26:22.983Z,66.70
2018-12-03T08:28:52.053Z,67.50
2018-12-03T08:31:21.069Z,67.47
2018-12-03T08:33:50.133Z,65.67
2018-12-03T08:36:19.139Z,69.40
2018-12-03T08:38:48.151Z,68.13
2018-12-03T08:41:17.205Z,68.50
2018-12-03T08:43:46.291Z,69.43
2018-12-03T08:46:15.317Z,79.13
2018-12-03T08:48:44.322Z,71.43
2018-12-03T08:51:13.370Z,70.90
2018-12-03T08:53:44.179Z,68.90
2018-12-03T08:56:13.223Z,76.73
2018-12-03T08:58:42.243Z,69.67
2018-12-03T09:01:11.290Z,69.80
2018-12-03T09:03:40.327Z,61.93
2018-12-03T09:06:09.399Z,61.67
2018-12-03T09:08:38.520Z,70.60
2018-12-03T09:11:07.612Z,65.70
2018-12-03T09:13:36.671Z,65.63
2018-12-03T09:16:06.055Z,59.80
2018-12-03T09:18:35.174Z,64.80
2018-12-03T09:21:08.103Z,69.50
2018-12-03T09:23:37.237Z,54.53
2018-12-03T09:26:06.458Z,63.83
2018-12-03T09:28:35.477Z,62.60
2018-12-03T09:31:04.862Z,61.50
2018-12-03T09:33:33.998Z,74.57
2018-12-03T09:36:03.080Z,58.60
2018-12-03T09:38:34.141Z,63.80
2018-12-03T09:41:05.985Z,52.90
2018-12-03T09:43:34.463Z,56.03
2018-12-03T09:46:03.483Z,54.47
2018-12-03T09:48:32.528Z,72.70
2018-12-03T09:51:01.544Z,60.33
2018-12-03T09:53:30.598Z,51.57
2018-12-03T09:55:59.622Z,57.90
2018-12-03T09:58:29.250Z,61.33
2018-12-03T10:00:58.279Z,55.53
2018-12-03T10:03:27.295Z,51.07
2018-12-03T10:05:56.343Z,56.03
2018-12-03T10:08:27.305Z,53.03
2018-12-03T10:10:56.347Z,55.70
2018-12-03T10:13:25.357Z,56.67
2018-12-03T10:15:54.407Z,52.87
2018-12-03T10:18:23.426Z,54.10
2018-12-03T10:20:52.542Z,54.37
2018-12-03T10:23:21.588Z,54.27
2018-12-03T10:25:51.210Z,55.20
2018-12-03T10:28:20.235Z,52.83
2018-12-03T10:30:49.282Z,53.63
2018-12-03T10:33:18.386Z,50.93
2018-12-03T10:35:47.461Z,61.77
2018-12-03T10:38:16.537Z,58.93
2018-12-03T10:40:45.610Z,61.47
2018-12-03T10:43:14.662Z,54.33
2018-12-03T10:45:43.684Z,58.07
2018-12-03T10:48:12.715Z,52.83
2018-12-03T10:50:42.007Z,47.27
2018-12-03T10:53:11.021Z,53.13
2018-12-03T10:55:40.703Z,50.17
2018-12-03T10:58:09.784Z,50.57
2018-12-03T11:00:56.848Z,48.20
2018-12-03T11:03:27.734Z,49.53
2018-12-03T11:06:18.438Z,50.73
2018-12-03T11:08:47.635Z,46.00
2018-12-03T11:11:16.722Z,50.23
2018-12-03T11:13:45.914Z,55.47
2018-12-03T11:16:18.946Z,58.30
2018-12-03T11:18:48.264Z,56.40
2018-12-03T11:21:17.386Z,51.37
2018-12-03T11:23:46.432Z,59.97
2018-12-03T11:26:15.434Z,57.57
2018-12-03T11:28:44.552Z,61.20
2018-12-03T11:31:18.713Z,50.97
2018-12-03T11:33:47.762Z,52.40
2018-12-03T11:36:17.491Z,56.47
2018-12-03T11:38:52.180Z,50.47
2018-12-03T11:41:21.196Z,54.63
2018-12-03T11:43:50.224Z,54.37
2018-12-03T11:46:19.296Z,57.70
2018-12-03T11:48:48.311Z,54.57
2018-12-03T11:51:17.357Z,55.53
2018-12-03T11:53:46.374Z,52.10
2018-12-03T11:56:15.416Z,50.37
2018-12-03T11:58:44.460Z,55.00
2018-12-03T12:01:13.478Z,51.60
2018-12-03T12:03:42.899Z,48.07
2018-12-03T12:06:12.152Z,91.50
2018-12-03T12:08:41.194Z,150.97
2018-12-03T12:11:10.231Z,210.93
2018-12-03T12:13:39.282Z,76.40
2018-12-03T12:16:08.322Z,54.50
2018-12-03T12:18:37.350Z,51.60
2018-12-03T12:21:06.467Z,55.60
2018-12-03T12:23:35.595Z,49.27
2018-12-03T12:26:06.081Z,45.27
2018-12-03T12:28:38.197Z,45.73
2018-12-03T12:31:06.214Z,45.63
2018-12-03T12:33:35.367Z,44.17
2018-12-03T12:36:05.052Z,43.67
2018-12-03T12:38:34.121Z,46.63
2018-12-03T12:41:03.124Z,46.67
2018-12-03T12:43:32.186Z,49.97
2018-12-03T12:46:01.201Z,48.47
2018-12-03T12:48:30.246Z,51.50
2018-12-03T12:50:59.408Z,40.40
2018-12-03T12:53:28.493Z,46.60
2018-12-03T12:55:57.531Z,42.80
2018-12-03T12:58:26.553Z,51.80
2018-12-03T13:00:55.594Z,58.03
2018-12-03T13:03:24.618Z,52.40
2018-12-03T13:05:53.663Z,53.70
2018-12-03T13:08:22.718Z,50.80
2018-12-03T13:10:51.762Z,61.27
2018-12-03T13:13:20.821Z,54.10
2018-12-03T13:15:49.824Z,57.37
2018-12-03T13:18:18.884Z,58.70
2018-12-03T13:20:47.895Z,55.77
2018-12-03T13:23:17.013Z,52.80
2018-12-03T13:25:46.031Z,51.43
2018-12-03T13:28:15.051Z,58.23
2018-12-03T13:30:44.091Z,62.33
2018-12-03T13:33:13.111Z,52.83
2018-12-03T13:35:42.155Z,55.20
2018-12-03T13:38:11.216Z,61.07
2018-12-03T13:40:40.232Z,58.73
2018-12-03T13:43:09.360Z,64.30
2018-12-03T13:45:38.379Z,61.50
2018-12-03T13:48:07.685Z,64.40
2018-12-03T13:50:36.709Z,54.30
2018-12-03T13:53:05.899Z,58.33
2018-12-03T13:55:34.964Z,56.60
2018-12-03T13:58:04.086Z,60.43
2018-12-03T14:00:33.114Z,56.57
2018-12-03T14:03:02.223Z,55.37
2018-12-03T14:05:31.252Z,59.50
2018-12-03T14:08:00.303Z,55.43
2018-12-03T14:10:29.672Z,60.97
2018-12-03T14:12:58.802Z,59.17
2018-12-03T14:15:28.204Z,65.17
2018-12-03T14:17:57.314Z,59.70
2018-12-03T14:20:27.122Z,61.90
2018-12-03T14:22:56.529Z,59.23
2018-12-03T14:25:25.661Z,57.30
2018-12-03T14:27:54.682Z,58.43
2018-12-03T14:30:23.731Z,49.13
2018-12-03T14:32:52.851Z,54.70
2018-12-03T14:35:21.889Z,55.07
2018-12-03T14:37:50.906Z,60.93
2018-12-03T14:40:19.960Z,56.27
2018-12-03T14:42:49.088Z,51.93
2018-12-03T14:45:18.154Z,55.83
2018-12-03T14:47:47.237Z,57.50
2018-12-03T14:50:16.294Z,59.60
2018-12-03T14:52:45.337Z,53.27
2018-12-03T14:55:14.358Z,52.57
2018-12-03T14:57:43.408Z,50.87
2018-12-03T15:00:13.631Z,57.73
2018-12-03T15:02:43.546Z,55.90
2018-12-03T15:05:13.074Z,51.57
2018-12-03T15:07:42.101Z,52.57
2018-12-03T15:10:11.156Z,55.50
2018-12-03T15:12:40.200Z,59.27
2018-12-03T15:15:09.296Z,60.73
2018-12-03T15:17:38.341Z,57.93
2018-12-03T15:20:07.651Z,62.93
2018-12-03T15:22:36.710Z,59.77
2018-12-03T15:25:06.867Z,57.30
2018-12-03T15:27:35.918Z,62.07
2018-12-03T15:30:05.787Z,61.10
2018-12-03T15:32:36.593Z,58.80
2018-12-03T15:35:05.880Z,65.27
2018-12-03T15:37:34.907Z,58.80
2018-12-03T15:40:05.788Z,59.80
2018-12-03T15:42:34.891Z,62.57
2018-12-03T15:45:05.579Z,53.63
2018-12-03T15:47:34.591Z,58.77
2018-12-03T15:50:03.845Z,49.57
2018-12-03T15:52:32.956Z,50.77
2018-12-03T15:55:02.045Z,46.63
2018-12-03T15:57:31.100Z,50.17
2018-12-03T16:00:00.120Z,51.83
2018-12-03T16:02:29.166Z,50.40
2018-12-03T16:04:58.190Z,53.80
2018-12-03T16:07:27.206Z,54.80
2018-12-03T16:09:56.258Z,59.57
2018-12-03T16:12:25.353Z,69.30
2018-12-03T16:14:54.417Z,80.90
2018-12-03T16:17:23.432Z,79.60
2018-12-03T16:19:52.499Z,82.37
2018-12-03T16:22:21.634Z,92.53
2018-12-03T16:24:50.654Z,96.70
2018-12-03T16:27:19.683Z,94.27
2018-12-03T16:29:48.737Z,104.73
2018-12-03T16:32:17.787Z,100.00
2018-12-03T16:34:46.812Z,90.07
2018-12-03T16:37:15.876Z,91.60
2018-12-03T16:39:44.900Z,91.97
2018-12-03T16:42:13.924Z,92.40
2018-12-03T16:44:43.038Z,94.10
2018-12-03T16:47:12.066Z,101.47
2018-12-03T16:49:41.132Z,101.07
2018-12-03T16:52:10.157Z,90.13
2018-12-03T16:54:39.178Z,94.60
2018-12-03T16:57:08.234Z,97.07
2018-12-03T16:59:37.264Z,87.10
2018-12-03T17:02:06.315Z,87.37
2018-12-03T17:04:35.446Z,90.37
2018-12-03T17:07:04.654Z,82.87
2018-12-03T17:09:33.755Z,95.60
2018-12-03T17:12:02.823Z,80.10
2018-12-03T17:14:31.870Z,96.67
2018-12-03T17:17:00.892Z,92.50
2018-12-03T17:19:30.645Z,89.70
2018-12-03T17:22:00.895Z,76.73
2018-12-03T17:24:30.284Z,92.83
2018-12-03T17:26:59.309Z,87.13
2018-12-03T17:29:28.375Z,86.87
2018-12-03T17:31:57.386Z,86.73
2018-12-03T17:34:26.434Z,79.90
2018-12-03T17:36:55.481Z,85.37
2018-12-03T17:39:24.557Z,69.20
2018-12-03T17:41:53.707Z,76.63
2018-12-03T17:44:22.720Z,64.37
2018-12-03T17:46:51.781Z,75.63
2018-12-03T17:49:20.807Z,70.60
2018-12-03T17:51:49.820Z,87.20
2018-12-03T17:54:18.870Z,74.70
2018-12-03T17:56:47.892Z,75.97
2018-12-03T17:59:16.949Z,82.30
2018-12-03T18:01:45.962Z,76.23
2018-12-03T18:04:15.064Z,70.60
2018-12-03T18:06:44.054Z,79.67
2018-12-03T18:09:13.110Z,69.90
2018-12-03T18:11:42.222Z,73.67
2018-12-03T18:14:11.243Z,71.60
2018-12-03T18:16:42.126Z,77.43
2018-12-03T18:19:11.185Z,77.33
2018-12-03T18:21:40.236Z,71.03
2018-12-03T18:24:09.250Z,74.93
2018-12-03T18:26:38.302Z,79.30
2018-12-03T18:29:07.311Z,71.17
2018-12-03T18:31:36.361Z,77.67
2018-12-03T18:34:05.417Z,76.00
2018-12-03T18:36:34.526Z,81.77
2018-12-03T18:39:06.321Z,96.10
2018-12-03T18:41:35.403Z,95.80
2018-12-03T18:44:04.501Z,89.10
2018-12-03T18:46:33.932Z,94.57
2018-12-03T18:49:03.704Z,91.80
2018-12-03T18:51:32.728Z,153.63
2018-12-03T18:54:03.570Z,162.37
2018-12-03T18:56:32.602Z,106.97
2018-12-03T18:59:02.745Z,85.57
2018-12-03T19:01:31.834Z,97.87
2018-12-03T19:04:00.875Z,101.10
2018-12-03T19:06:30.103Z,122.77
2018-12-03T19:08:59.140Z,146.03
2018-12-03T19:11:28.252Z,138.40
2018-12-03T19:13:57.297Z,130.73
2018-12-03T19:16:26.374Z,165.93
2018-12-03T19:18:55.471Z,102.50
2018-12-03T19:21:24.551Z,97.00
2018-12-03T19:23:53.570Z,85.70
2018-12-03T19:26:22.588Z,89.53
2018-12-03T19:28:53.520Z,89.30
2018-12-03T19:31:22.616Z,91.50
2018-12-03T19:33:51.686Z,101.13
2018-12-03T19:36:20.727Z,108.80
2018-12-03T19:38:49.778Z,109.63
2018-12-03T19:41:18.821Z,102.40
2018-12-03T19:43:47.841Z,109.07
2018-12-03T19:46:19.293Z,99.70
2018-12-03T19:48:48.314Z,111.70
2018-12-03T19:51:17.374Z,117.50
2018-12-03T19:53:46.409Z,112.40
2018-12-03T19:56:15.474Z,114.70
2018-12-03T19:58:44.516Z,123.23
2018-12-03T20:01:13.568Z,138.67
2018-12-03T20:03:42.669Z,141.77
2018-12-03T20:06:11.730Z,134.47
2018-12-03T20:08:40.758Z,145.33
2018-12-03T20:11:09.908Z,134.23
2018-12-03T20:13:38.929Z,142.13
2018-12-03T20:16:07.963Z,133.23
2018-12-03T20:18:37.017Z,139.23
2018-12-03T20:21:06.073Z,118.33
2018-12-03T20:23:35.152Z,233.83
2018-12-03T20:26:04.974Z,176.00
2018-12-03T20:28:35.691Z,126.40
2018-12-03T20:31:06.982Z,130.13
2018-12-03T20:33:37.280Z,108.37
2018-12-03T20:36:07.520Z,125.10
2018-12-03T20:38:36.658Z,120.10
2018-12-03T20:41:05.758Z,129.03
2018-12-03T20:43:34.888Z,114.10
2018-12-03T20:46:05.695Z,119.27
2018-12-03T20:48:38.475Z,123.30
2018-12-03T20:51:08.836Z,118.20
2018-12-03T20:53:38.042Z,111.63
2018-12-03T20:56:07.095Z,107.33
2018-12-03T20:58:36.125Z,117.00
2018-12-03T21:01:05.346Z,97.20
2018-12-03T21:03:34.376Z,116.30
2018-12-03T21:06:03.436Z,102.33
2018-12-03T21:08:32.465Z,101.47
2018-12-03T21:11:02.814Z,111.73
2018-12-03T21:13:31.941Z,98.03
2018-12-03T21:16:00.999Z,107.43
2018-12-03T21:18:30.094Z,116.07
2018-12-03T21:20:59.374Z,112.37
2018-12-03T21:23:28.455Z,110.50
2018-12-03T21:25:57.485Z,103.17
2018-12-03T21:28:26.540Z,104.97
2018-12-03T21:30:56.543Z,110.13
2018-12-03T21:33:25.589Z,97.83
2018-12-03T21:35:54.609Z,99.27
2018-12-03T21:38:23.684Z,97.87
2018-12-03T21:40:52.797Z,91.27
2018-12-03T21:43:21.883Z,88.87
2018-12-03T21:45:50.936Z,89.80
2018-12-03T21:48:19.972Z,82.97
2018-12-03T21:50:49.019Z,86.27
2018-12-03T21:53:18.033Z,95.10
2018-12-03T21:55:47.093Z,93.03
2018-12-03T21:58:16.130Z,78.07
2018-12-03T22:00:45.285Z,76.10
2018-12-03T22:03:14.335Z,80.30
2018-12-03T22:05:43.388Z,81.70
2018-12-03T22:08:12.418Z,86.63
2018-12-03T22:10:41.499Z,81.20
2018-12-03T22:13:10.519Z,85.80
2018-12-03T22:15:39.535Z,85.67
2018-12-03T22:18:08.590Z,81.10
2018-12-03T22:20:37.648Z,86.67
2018-12-03T22:23:06.752Z,82.80
2018-12-03T22:25:36.090Z,82.37
2018-12-03T22:28:05.141Z,93.60
2018-12-03T22:30:34.173Z,92.80
2018-12-03T22:33:03.238Z,76.43
2018-12-03T22:35:32.307Z,85.47
2018-12-03T22:38:01.346Z,78.73
2018-12-03T22:40:30.389Z,88.03
2018-12-03T22:42:59.416Z,76.33
2018-12-03T22:45:28.482Z,82.10
2018-12-03T22:47:57.535Z,89.30
2018-12-03T22:50:26.612Z,77.43
2018-12-03T22:52:55.669Z,79.67
2018-12-03T22:55:24.734Z,90.87
2018-12-03T22:57:53.756Z,77.77
2018-12-03T23:00:36.820Z,83.23
2018-12-03T23:03:05.914Z,75.60
2018-12-03T23:05:34.945Z,69.40
2018-12-03T23:08:04.007Z,73.87
2018-12-03T23:10:33.028Z,65.60
2018-12-03T23:13:02.384Z,77.77
2018-12-03T23:15:31.429Z,69.13
2018-12-03T23:18:00.419Z,69.20
2018-12-03T23:20:29.486Z,68.80
2018-12-03T23:22:58.535Z,75.20
2018-12-03T23:25:27.549Z,78.80
2018-12-03T23:27:56.598Z,86.43
2018-12-03T23:30:25.610Z,81.17
2018-12-03T23:32:54.697Z,76.80
2018-12-03T23:35:23.715Z,68.00
2018-12-03T23:37:52.722Z,72.73
2018-12-03T23:40:21.773Z,77.33
2018-12-03T23:42:50.791Z,71.57
2018-12-03T23:45:19.808Z,79.60
2018-12-03T23:47:48.908Z,63.50
2018-12-03T23:50:17.922Z,73.80
2018-12-03T23:52:46.968Z,70.50
2018-12-03T23:55:15.989Z,72.27
2018-12-03T23:57:45.036Z,73.37
